sensor_id;sensor_type;location;lat;lon;timestamp;P1;durP1;ratioP1;P2;durP2;ratioP2
66669;SDS011;53568;52.164;4.472;2023-04-23T00:01:05;59.79;;;57.12;;
66669;SDS011;53568;52.164;4.472;2023-04-23T00:03:33;60.34;;;57.59;;
66669;SDS011;53568;52.164;4.472;2023-04-23T00:06:04;59.12;;;56.30;;
66669;SDS011;53568;52.164;4.472;2023-04-23T00:08:32;60.55;;;58.18;;
66669;SDS011;53568;52.164;4.472;2023-04-23T00:10:58;60.99;;;58.54;;
66669;SDS011;53568;52.164;4.472;2023-04-23T00:13:24;60.78;;;58.35;;
66669;SDS011;53568;52.164;4.472;2023-04-23T00:15:50;61.98;;;59.56;;
66669;SDS011;53568;52.164;4.472;2023-04-23T00:18:16;63.73;;;60.89;;
66669;SDS011;53568;52.164;4.472;2023-04-23T00:20:41;63.73;;;60.36;;
66669;SDS011;53568;52.164;4.472;2023-04-23T00:23:07;62.11;;;59.24;;
66669;SDS011;53568;52.164;4.472;2023-04-23T00:25:33;62.63;;;59.59;;
66669;SDS011;53568;52.164;4.472;2023-04-23T00:27:59;63.29;;;60.45;;
66669;SDS011;53568;52.164;4.472;2023-04-23T00:30:24;63.01;;;59.97;;
66669;SDS011;53568;52.164;4.472;2023-04-23T00:32:50;62.69;;;59.92;;
66669;SDS011;53568;52.164;4.472;2023-04-23T00:35:15;63.88;;;60.89;;
66669;SDS011;53568;52.164;4.472;2023-04-23T00:37:42;65.32;;;62.16;;
66669;SDS011;53568;52.164;4.472;2023-04-23T00:40:08;63.45;;;60.61;;
66669;SDS011;53568;52.164;4.472;2023-04-23T00:42:34;65.02;;;61.62;;
66669;SDS011;53568;52.164;4.472;2023-04-23T00:45:01;64.24;;;61.20;;
66669;SDS011;53568;52.164;4.472;2023-04-23T00:47:27;65.07;;;62.05;;
66669;SDS011;53568;52.164;4.472;2023-04-23T00:49:54;63.43;;;60.53;;
66669;SDS011;53568;52.164;4.472;2023-04-23T00:52:20;63.86;;;61.01;;
66669;SDS011;53568;52.164;4.472;2023-04-23T00:54:46;64.05;;;61.19;;
66669;SDS011;53568;52.164;4.472;2023-04-23T00:57:11;66.10;;;62.81;;
66669;SDS011;53568;52.164;4.472;2023-04-23T00:59:38;64.68;;;61.90;;
66669;SDS011;53568;52.164;4.472;2023-04-23T01:02:04;63.38;;;60.99;;
66669;SDS011;53568;52.164;4.472;2023-04-23T01:04:29;66.08;;;62.77;;
66669;SDS011;53568;52.164;4.472;2023-04-23T01:06:57;65.42;;;62.56;;
66669;SDS011;53568;52.164;4.472;2023-04-23T01:09:23;66.04;;;62.81;;
66669;SDS011;53568;52.164;4.472;2023-04-23T01:11:51;65.58;;;62.63;;
66669;SDS011;53568;52.164;4.472;2023-04-23T01:14:18;65.99;;;62.68;;
66669;SDS011;53568;52.164;4.472;2023-04-23T01:16:43;66.34;;;63.46;;
66669;SDS011;53568;52.164;4.472;2023-04-23T01:19:09;66.92;;;63.26;;
66669;SDS011;53568;52.164;4.472;2023-04-23T01:21:36;67.70;;;64.13;;
66669;SDS011;53568;52.164;4.472;2023-04-23T01:24:04;67.83;;;64.25;;
66669;SDS011;53568;52.164;4.472;2023-04-23T01:26:30;66.09;;;63.28;;
66669;SDS011;53568;52.164;4.472;2023-04-23T01:28:58;67.27;;;63.86;;
66669;SDS011;53568;52.164;4.472;2023-04-23T01:31:24;66.29;;;63.35;;
66669;SDS011;53568;52.164;4.472;2023-04-23T01:33:51;67.14;;;64.05;;
66669;SDS011;53568;52.164;4.472;2023-04-23T01:36:19;67.91;;;64.51;;
66669;SDS011;53568;52.164;4.472;2023-04-23T01:38:46;66.69;;;63.83;;
66669;SDS011;53568;52.164;4.472;2023-04-23T01:41:12;67.27;;;64.09;;
66669;SDS011;53568;52.164;4.472;2023-04-23T01:43:38;65.35;;;62.47;;
66669;SDS011;53568;52.164;4.472;2023-04-23T01:46:05;66.03;;;63.11;;
66669;SDS011;53568;52.164;4.472;2023-04-23T01:48:31;65.53;;;62.42;;
66669;SDS011;53568;52.164;4.472;2023-04-23T01:50:57;64.60;;;61.81;;
66669;SDS011;53568;52.164;4.472;2023-04-23T01:53:22;65.52;;;61.86;;
66669;SDS011;53568;52.164;4.472;2023-04-23T01:55:48;65.88;;;62.76;;
66669;SDS011;53568;52.164;4.472;2023-04-23T01:58:16;64.14;;;61.67;;
66669;SDS011;53568;52.164;4.472;2023-04-23T02:00:43;65.51;;;62.47;;
66669;SDS011;53568;52.164;4.472;2023-04-23T02:03:08;66.40;;;63.25;;
66669;SDS011;53568;52.164;4.472;2023-04-23T02:05:34;65.68;;;62.87;;
66669;SDS011;53568;52.164;4.472;2023-04-23T02:08:00;65.75;;;62.88;;
66669;SDS011;53568;52.164;4.472;2023-04-23T02:10:27;66.09;;;62.67;;
66669;SDS011;53568;52.164;4.472;2023-04-23T02:12:54;65.70;;;62.86;;
66669;SDS011;53568;52.164;4.472;2023-04-23T02:15:21;65.55;;;62.33;;
66669;SDS011;53568;52.164;4.472;2023-04-23T02:17:46;65.84;;;62.45;;
66669;SDS011;53568;52.164;4.472;2023-04-23T02:20:15;65.58;;;62.45;;
66669;SDS011;53568;52.164;4.472;2023-04-23T02:22:41;64.85;;;61.82;;
66669;SDS011;53568;52.164;4.472;2023-04-23T02:25:07;62.80;;;60.09;;
66669;SDS011;53568;52.164;4.472;2023-04-23T02:27:33;63.75;;;60.83;;
66669;SDS011;53568;52.164;4.472;2023-04-23T02:30:00;64.08;;;61.02;;
66669;SDS011;53568;52.164;4.472;2023-04-23T02:32:26;63.12;;;60.71;;
66669;SDS011;53568;52.164;4.472;2023-04-23T02:34:52;62.96;;;60.56;;
66669;SDS011;53568;52.164;4.472;2023-04-23T02:37:17;62.11;;;59.44;;
66669;SDS011;53568;52.164;4.472;2023-04-23T02:39:43;62.08;;;59.22;;
66669;SDS011;53568;52.164;4.472;2023-04-23T02:42:09;61.88;;;59.22;;
66669;SDS011;53568;52.164;4.472;2023-04-23T02:44:35;62.11;;;59.38;;
66669;SDS011;53568;52.164;4.472;2023-04-23T02:47:01;60.87;;;58.42;;
66669;SDS011;53568;52.164;4.472;2023-04-23T02:49:27;61.48;;;58.64;;
66669;SDS011;53568;52.164;4.472;2023-04-23T02:51:52;60.83;;;58.11;;
66669;SDS011;53568;52.164;4.472;2023-04-23T02:54:18;61.06;;;58.22;;
66669;SDS011;53568;52.164;4.472;2023-04-23T02:56:44;60.60;;;58.22;;
66669;SDS011;53568;52.164;4.472;2023-04-23T02:59:09;58.97;;;56.82;;
66669;SDS011;53568;52.164;4.472;2023-04-23T03:01:35;58.83;;;56.68;;
66669;SDS011;53568;52.164;4.472;2023-04-23T03:04:01;56.90;;;54.60;;
66669;SDS011;53568;52.164;4.472;2023-04-23T03:06:27;56.30;;;53.89;;
66669;SDS011;53568;52.164;4.472;2023-04-23T03:08:56;55.10;;;52.87;;
66669;SDS011;53568;52.164;4.472;2023-04-23T03:11:21;53.33;;;51.17;;
66669;SDS011;53568;52.164;4.472;2023-04-23T03:13:47;51.28;;;49.59;;
66669;SDS011;53568;52.164;4.472;2023-04-23T03:16:13;49.48;;;47.68;;
66669;SDS011;53568;52.164;4.472;2023-04-23T03:18:39;49.02;;;47.44;;
66669;SDS011;53568;52.164;4.472;2023-04-23T03:21:04;48.73;;;47.06;;
66669;SDS011;53568;52.164;4.472;2023-04-23T03:23:30;47.14;;;45.60;;
66669;SDS011;53568;52.164;4.472;2023-04-23T03:25:56;46.86;;;45.07;;
66669;SDS011;53568;52.164;4.472;2023-04-23T03:28:22;45.81;;;44.48;;
66669;SDS011;53568;52.164;4.472;2023-04-23T03:30:48;44.88;;;43.32;;
66669;SDS011;53568;52.164;4.472;2023-04-23T03:33:13;44.15;;;42.76;;
66669;SDS011;53568;52.164;4.472;2023-04-23T03:35:39;43.43;;;42.10;;
66669;SDS011;53568;52.164;4.472;2023-04-23T03:38:05;42.31;;;41.09;;
66669;SDS011;53568;52.164;4.472;2023-04-23T03:40:30;42.18;;;41.17;;
66669;SDS011;53568;52.164;4.472;2023-04-23T03:42:56;41.79;;;40.61;;
66669;SDS011;53568;52.164;4.472;2023-04-23T03:45:22;43.61;;;41.83;;
66669;SDS011;53568;52.164;4.472;2023-04-23T03:47:47;41.53;;;40.28;;
66669;SDS011;53568;52.164;4.472;2023-04-23T03:50:13;41.38;;;40.06;;
66669;SDS011;53568;52.164;4.472;2023-04-23T03:52:39;41.36;;;39.92;;
66669;SDS011;53568;52.164;4.472;2023-04-23T03:55:05;41.15;;;40.01;;
66669;SDS011;53568;52.164;4.472;2023-04-23T03:57:32;42.66;;;41.14;;
66669;SDS011;53568;52.164;4.472;2023-04-23T03:59:57;41.64;;;40.34;;
66669;SDS011;53568;52.164;4.472;2023-04-23T04:02:23;41.17;;;40.19;;
66669;SDS011;53568;52.164;4.472;2023-04-23T04:04:48;41.06;;;39.94;;
66669;SDS011;53568;52.164;4.472;2023-04-23T04:07:16;41.54;;;40.21;;
66669;SDS011;53568;52.164;4.472;2023-04-23T04:09:42;41.15;;;39.92;;
66669;SDS011;53568;52.164;4.472;2023-04-23T04:12:07;39.81;;;38.67;;
66669;SDS011;53568;52.164;4.472;2023-04-23T04:14:33;40.55;;;39.46;;
66669;SDS011;53568;52.164;4.472;2023-04-23T04:16:58;41.18;;;39.98;;
66669;SDS011;53568;52.164;4.472;2023-04-23T04:19:24;41.06;;;39.31;;
66669;SDS011;53568;52.164;4.472;2023-04-23T04:21:49;41.34;;;40.06;;
66669;SDS011;53568;52.164;4.472;2023-04-23T04:24:15;40.37;;;39.11;;
66669;SDS011;53568;52.164;4.472;2023-04-23T04:26:42;40.60;;;39.01;;
66669;SDS011;53568;52.164;4.472;2023-04-23T04:29:09;40.05;;;39.12;;
66669;SDS011;53568;52.164;4.472;2023-04-23T04:31:36;41.02;;;40.06;;
66669;SDS011;53568;52.164;4.472;2023-04-23T04:34:02;40.94;;;39.52;;
66669;SDS011;53568;52.164;4.472;2023-04-23T04:36:28;40.58;;;39.19;;
66669;SDS011;53568;52.164;4.472;2023-04-23T04:38:54;39.93;;;39.13;;
66669;SDS011;53568;52.164;4.472;2023-04-23T04:41:23;40.74;;;39.52;;
66669;SDS011;53568;52.164;4.472;2023-04-23T04:43:50;41.04;;;39.83;;
66669;SDS011;53568;52.164;4.472;2023-04-23T04:46:16;40.38;;;39.12;;
66669;SDS011;53568;52.164;4.472;2023-04-23T04:48:45;40.56;;;39.37;;
66669;SDS011;53568;52.164;4.472;2023-04-23T04:51:13;39.90;;;38.90;;
66669;SDS011;53568;52.164;4.472;2023-04-23T04:53:39;40.32;;;39.03;;
66669;SDS011;53568;52.164;4.472;2023-04-23T04:56:04;39.63;;;38.33;;
66669;SDS011;53568;52.164;4.472;2023-04-23T04:58:30;39.64;;;38.54;;
66669;SDS011;53568;52.164;4.472;2023-04-23T05:00:57;39.81;;;38.33;;
66669;SDS011;53568;52.164;4.472;2023-04-23T05:03:24;38.76;;;37.70;;
66669;SDS011;53568;52.164;4.472;2023-04-23T05:05:51;39.34;;;38.18;;
66669;SDS011;53568;52.164;4.472;2023-04-23T05:08:19;38.88;;;37.83;;
66669;SDS011;53568;52.164;4.472;2023-04-23T05:10:46;39.18;;;37.80;;
66669;SDS011;53568;52.164;4.472;2023-04-23T05:13:12;38.37;;;37.15;;
66669;SDS011;53568;52.164;4.472;2023-04-23T05:15:37;38.38;;;37.04;;
66669;SDS011;53568;52.164;4.472;2023-04-23T05:18:05;37.83;;;36.49;;
66669;SDS011;53568;52.164;4.472;2023-04-23T05:20:30;38.23;;;36.94;;
66669;SDS011;53568;52.164;4.472;2023-04-23T05:22:59;38.07;;;36.74;;
66669;SDS011;53568;52.164;4.472;2023-04-23T05:25:26;37.62;;;36.18;;
66669;SDS011;53568;52.164;4.472;2023-04-23T05:27:53;36.51;;;35.38;;
66669;SDS011;53568;52.164;4.472;2023-04-23T05:30:18;35.72;;;34.87;;
66669;SDS011;53568;52.164;4.472;2023-04-23T05:32:44;36.07;;;35.09;;
66669;SDS011;53568;52.164;4.472;2023-04-23T05:35:10;35.44;;;34.51;;
66669;SDS011;53568;52.164;4.472;2023-04-23T05:37:35;36.02;;;34.54;;
66669;SDS011;53568;52.164;4.472;2023-04-23T05:40:01;35.60;;;34.33;;
66669;SDS011;53568;52.164;4.472;2023-04-23T05:42:27;35.35;;;34.41;;
66669;SDS011;53568;52.164;4.472;2023-04-23T05:44:52;34.29;;;33.48;;
66669;SDS011;53568;52.164;4.472;2023-04-23T05:47:18;34.35;;;33.47;;
66669;SDS011;53568;52.164;4.472;2023-04-23T05:49:44;34.10;;;33.07;;
66669;SDS011;53568;52.164;4.472;2023-04-23T05:52:10;33.58;;;32.62;;
66669;SDS011;53568;52.164;4.472;2023-04-23T05:54:36;33.22;;;32.36;;
66669;SDS011;53568;52.164;4.472;2023-04-23T05:57:01;32.69;;;31.80;;
66669;SDS011;53568;52.164;4.472;2023-04-23T05:59:28;33.34;;;32.31;;
66669;SDS011;53568;52.164;4.472;2023-04-23T06:01:54;32.79;;;32.08;;
66669;SDS011;53568;52.164;4.472;2023-04-23T06:04:19;31.88;;;30.96;;
66669;SDS011;53568;52.164;4.472;2023-04-23T06:06:45;31.87;;;30.73;;
66669;SDS011;53568;52.164;4.472;2023-04-23T06:09:11;32.62;;;31.52;;
66669;SDS011;53568;52.164;4.472;2023-04-23T06:11:36;31.36;;;30.50;;
66669;SDS011;53568;52.164;4.472;2023-04-23T06:14:02;32.01;;;30.98;;
66669;SDS011;53568;52.164;4.472;2023-04-23T06:16:28;31.82;;;30.81;;
66669;SDS011;53568;52.164;4.472;2023-04-23T06:18:54;32.19;;;31.09;;
66669;SDS011;53568;52.164;4.472;2023-04-23T06:21:22;30.41;;;29.75;;
66669;SDS011;53568;52.164;4.472;2023-04-23T06:23:48;30.17;;;29.52;;
66669;SDS011;53568;52.164;4.472;2023-04-23T06:26:14;30.36;;;29.65;;
66669;SDS011;53568;52.164;4.472;2023-04-23T06:28:43;29.67;;;29.03;;
66669;SDS011;53568;52.164;4.472;2023-04-23T06:31:10;28.65;;;28.06;;
66669;SDS011;53568;52.164;4.472;2023-04-23T06:33:36;29.43;;;28.59;;
66669;SDS011;53568;52.164;4.472;2023-04-23T06:36:02;28.99;;;27.93;;
66669;SDS011;53568;52.164;4.472;2023-04-23T06:38:28;27.95;;;27.42;;
66669;SDS011;53568;52.164;4.472;2023-04-23T06:40:54;27.65;;;26.85;;
66669;SDS011;53568;52.164;4.472;2023-04-23T06:43:20;26.96;;;26.36;;
66669;SDS011;53568;52.164;4.472;2023-04-23T06:45:46;26.41;;;25.77;;
66669;SDS011;53568;52.164;4.472;2023-04-23T06:48:11;25.75;;;25.20;;
66669;SDS011;53568;52.164;4.472;2023-04-23T06:50:37;24.32;;;23.81;;
66669;SDS011;53568;52.164;4.472;2023-04-23T06:53:04;24.29;;;23.91;;
66669;SDS011;53568;52.164;4.472;2023-04-23T06:55:29;24.69;;;23.99;;
66669;SDS011;53568;52.164;4.472;2023-04-23T06:57:56;24.40;;;24.05;;
66669;SDS011;53568;52.164;4.472;2023-04-23T07:00:22;23.42;;;23.12;;
66669;SDS011;53568;52.164;4.472;2023-04-23T07:02:48;23.18;;;22.79;;
66669;SDS011;53568;52.164;4.472;2023-04-23T07:05:15;22.07;;;21.80;;
66669;SDS011;53568;52.164;4.472;2023-04-23T07:07:42;21.36;;;21.21;;
66669;SDS011;53568;52.164;4.472;2023-04-23T07:10:09;20.29;;;19.85;;
66669;SDS011;53568;52.164;4.472;2023-04-23T07:12:36;19.71;;;19.34;;
66669;SDS011;53568;52.164;4.472;2023-04-23T07:15:02;19.58;;;19.20;;
66669;SDS011;53568;52.164;4.472;2023-04-23T07:17:29;19.11;;;18.93;;
66669;SDS011;53568;52.164;4.472;2023-04-23T07:19:55;19.68;;;19.37;;
66669;SDS011;53568;52.164;4.472;2023-04-23T07:22:20;19.19;;;18.93;;
66669;SDS011;53568;52.164;4.472;2023-04-23T07:24:47;18.85;;;18.68;;
66669;SDS011;53568;52.164;4.472;2023-04-23T07:27:13;19.17;;;18.90;;
66669;SDS011;53568;52.164;4.472;2023-04-23T07:29:38;18.17;;;18.06;;
66669;SDS011;53568;52.164;4.472;2023-04-23T07:32:04;18.65;;;18.46;;
66669;SDS011;53568;52.164;4.472;2023-04-23T07:34:29;18.40;;;18.04;;
66669;SDS011;53568;52.164;4.472;2023-04-23T07:36:55;18.65;;;18.23;;
66669;SDS011;53568;52.164;4.472;2023-04-23T07:39:21;18.25;;;17.98;;
66669;SDS011;53568;52.164;4.472;2023-04-23T07:41:46;17.42;;;17.27;;
66669;SDS011;53568;52.164;4.472;2023-04-23T07:44:12;17.23;;;16.80;;
66669;SDS011;53568;52.164;4.472;2023-04-23T07:46:38;17.30;;;16.90;;
66669;SDS011;53568;52.164;4.472;2023-04-23T07:49:03;15.35;;;14.98;;
66669;SDS011;53568;52.164;4.472;2023-04-23T07:51:29;14.23;;;14.01;;
66669;SDS011;53568;52.164;4.472;2023-04-23T07:53:56;12.82;;;12.74;;
66669;SDS011;53568;52.164;4.472;2023-04-23T07:56:22;12.69;;;12.62;;
66669;SDS011;53568;52.164;4.472;2023-04-23T07:58:48;12.69;;;12.58;;
66669;SDS011;53568;52.164;4.472;2023-04-23T08:01:15;12.44;;;12.40;;
66669;SDS011;53568;52.164;4.472;2023-04-23T08:03:41;11.65;;;11.65;;
66669;SDS011;53568;52.164;4.472;2023-04-23T08:06:07;10.60;;;10.60;;
66669;SDS011;53568;52.164;4.472;2023-04-23T08:08:35;10.27;;;10.27;;
66669;SDS011;53568;52.164;4.472;2023-04-23T08:11:00;9.61;;;9.61;;
66669;SDS011;53568;52.164;4.472;2023-04-23T08:13:26;9.81;;;9.76;;
66669;SDS011;53568;52.164;4.472;2023-04-23T08:15:51;9.73;;;9.69;;
66669;SDS011;53568;52.164;4.472;2023-04-23T08:18:17;9.26;;;9.25;;
66669;SDS011;53568;52.164;4.472;2023-04-23T08:20:42;9.52;;;9.46;;
66669;SDS011;53568;52.164;4.472;2023-04-23T08:23:08;9.74;;;9.68;;
66669;SDS011;53568;52.164;4.472;2023-04-23T08:25:34;9.50;;;9.48;;
66669;SDS011;53568;52.164;4.472;2023-04-23T08:27:59;8.98;;;8.95;;
66669;SDS011;53568;52.164;4.472;2023-04-23T08:30:25;8.76;;;8.75;;
66669;SDS011;53568;52.164;4.472;2023-04-23T08:32:51;8.85;;;8.83;;
66669;SDS011;53568;52.164;4.472;2023-04-23T08:35:19;9.75;;;9.72;;
66669;SDS011;53568;52.164;4.472;2023-04-23T08:37:45;10.67;;;10.67;;
66669;SDS011;53568;52.164;4.472;2023-04-23T08:40:11;10.72;;;10.72;;
66669;SDS011;53568;52.164;4.472;2023-04-23T08:42:40;10.50;;;10.46;;
66669;SDS011;53568;52.164;4.472;2023-04-23T08:45:08;10.23;;;10.16;;
66669;SDS011;53568;52.164;4.472;2023-04-23T08:47:34;10.50;;;10.47;;
66669;SDS011;53568;52.164;4.472;2023-04-23T08:50:01;10.79;;;10.75;;
66669;SDS011;53568;52.164;4.472;2023-04-23T08:52:30;10.87;;;10.82;;
66669;SDS011;53568;52.164;4.472;2023-04-23T08:55:00;10.04;;;10.04;;
66669;SDS011;53568;52.164;4.472;2023-04-23T08:57:28;9.97;;;9.97;;
66669;SDS011;53568;52.164;4.472;2023-04-23T08:59:55;10.08;;;10.07;;
66669;SDS011;53568;52.164;4.472;2023-04-23T09:02:21;10.81;;;10.81;;
66669;SDS011;53568;52.164;4.472;2023-04-23T09:04:47;10.44;;;10.44;;
66669;SDS011;53568;52.164;4.472;2023-04-23T09:07:13;10.97;;;10.97;;
66669;SDS011;53568;52.164;4.472;2023-04-23T09:09:41;11.57;;;11.57;;
66669;SDS011;53568;52.164;4.472;2023-04-23T09:12:07;11.23;;;11.23;;
66669;SDS011;53568;52.164;4.472;2023-04-23T09:14:34;11.54;;;11.54;;
66669;SDS011;53568;52.164;4.472;2023-04-23T09:17:03;13.70;;;13.70;;
66669;SDS011;53568;52.164;4.472;2023-04-23T09:19:29;15.25;;;15.25;;
66669;SDS011;53568;52.164;4.472;2023-04-23T09:21:57;14.69;;;14.69;;
66669;SDS011;53568;52.164;4.472;2023-04-23T09:24:25;13.60;;;13.60;;
66669;SDS011;53568;52.164;4.472;2023-04-23T09:26:51;14.40;;;14.40;;
66669;SDS011;53568;52.164;4.472;2023-04-23T09:29:19;13.82;;;13.82;;
66669;SDS011;53568;52.164;4.472;2023-04-23T09:31:55;12.44;;;12.44;;
66669;SDS011;53568;52.164;4.472;2023-04-23T09:34:26;12.20;;;12.20;;
66669;SDS011;53568;52.164;4.472;2023-04-23T09:36:52;13.48;;;13.48;;
66669;SDS011;53568;52.164;4.472;2023-04-23T09:39:18;14.21;;;14.21;;
66669;SDS011;53568;52.164;4.472;2023-04-23T09:41:46;13.87;;;13.87;;
66669;SDS011;53568;52.164;4.472;2023-04-23T09:44:18;13.36;;;13.36;;
66669;SDS011;53568;52.164;4.472;2023-04-23T09:46:50;13.56;;;13.56;;
66669;SDS011;53568;52.164;4.472;2023-04-23T09:49:16;12.23;;;12.23;;
66669;SDS011;53568;52.164;4.472;2023-04-23T09:51:43;12.51;;;12.51;;
66669;SDS011;53568;52.164;4.472;2023-04-23T09:54:17;12.39;;;12.39;;
66669;SDS011;53568;52.164;4.472;2023-04-23T09:56:49;9.96;;;9.96;;
66669;SDS011;53568;52.164;4.472;2023-04-23T10:01:53;7.40;;;7.40;;
66669;SDS011;53568;52.164;4.472;2023-04-23T10:04:19;6.94;;;6.94;;
66669;SDS011;53568;52.164;4.472;2023-04-23T10:06:53;7.06;;;7.06;;
66669;SDS011;53568;52.164;4.472;2023-04-23T10:09:20;5.45;;;5.45;;
66669;SDS011;53568;52.164;4.472;2023-04-23T10:11:51;5.48;;;5.47;;
66669;SDS011;53568;52.164;4.472;2023-04-23T10:14:26;5.10;;;5.06;;
66669;SDS011;53568;52.164;4.472;2023-04-23T10:19:26;4.78;;;4.78;;
66669;SDS011;53568;52.164;4.472;2023-04-23T10:22:00;5.06;;;4.90;;
66669;SDS011;53568;52.164;4.472;2023-04-23T10:24:32;5.10;;;5.01;;
66669;SDS011;53568;52.164;4.472;2023-04-23T10:27:00;4.90;;;4.82;;
66669;SDS011;53568;52.164;4.472;2023-04-23T10:29:29;5.02;;;4.99;;
66669;SDS011;53568;52.164;4.472;2023-04-23T10:31:59;4.82;;;4.71;;
66669;SDS011;53568;52.164;4.472;2023-04-23T10:34:26;5.12;;;4.91;;
66669;SDS011;53568;52.164;4.472;2023-04-23T10:36:54;5.03;;;4.83;;
66669;SDS011;53568;52.164;4.472;2023-04-23T10:39:23;5.40;;;5.23;;
66669;SDS011;53568;52.164;4.472;2023-04-23T10:41:51;5.32;;;5.31;;
66669;SDS011;53568;52.164;4.472;2023-04-23T10:44:19;4.99;;;4.99;;
66669;SDS011;53568;52.164;4.472;2023-04-23T10:46:56;4.88;;;4.88;;
66669;SDS011;53568;52.164;4.472;2023-04-23T10:49:22;5.21;;;5.21;;
66669;SDS011;53568;52.164;4.472;2023-04-23T10:54:43;5.65;;;5.61;;
66669;SDS011;53568;52.164;4.472;2023-04-23T10:57:13;5.15;;;5.13;;
66669;SDS011;53568;52.164;4.472;2023-04-23T10:59:40;5.30;;;5.30;;
66669;SDS011;53568;52.164;4.472;2023-04-23T11:02:19;4.97;;;4.97;;
66669;SDS011;53568;52.164;4.472;2023-04-23T11:04:55;5.06;;;5.06;;
66669;SDS011;53568;52.164;4.472;2023-04-23T11:07:24;5.28;;;5.28;;
66669;SDS011;53568;52.164;4.472;2023-04-23T11:09:56;5.03;;;5.03;;
66669;SDS011;53568;52.164;4.472;2023-04-23T11:14:54;5.10;;;5.10;;
66669;SDS011;53568;52.164;4.472;2023-04-23T11:17:34;5.21;;;5.20;;
66669;SDS011;53568;52.164;4.472;2023-04-23T11:22:35;4.47;;;4.47;;
66669;SDS011;53568;52.164;4.472;2023-04-23T11:25:02;4.50;;;4.50;;
66669;SDS011;53568;52.164;4.472;2023-04-23T11:27:30;4.33;;;4.33;;
66669;SDS011;53568;52.164;4.472;2023-04-23T11:29:56;4.03;;;4.02;;
66669;SDS011;53568;52.164;4.472;2023-04-23T11:32:22;4.18;;;4.17;;
66669;SDS011;53568;52.164;4.472;2023-04-23T11:34:48;4.15;;;4.04;;
66669;SDS011;53568;52.164;4.472;2023-04-23T11:37:15;3.38;;;3.26;;
66669;SDS011;53568;52.164;4.472;2023-04-23T11:39:42;3.82;;;3.67;;
66669;SDS011;53568;52.164;4.472;2023-04-23T11:42:13;3.46;;;3.38;;
66669;SDS011;53568;52.164;4.472;2023-04-23T11:44:40;3.63;;;3.48;;
66669;SDS011;53568;52.164;4.472;2023-04-23T11:47:07;3.90;;;3.73;;
66669;SDS011;53568;52.164;4.472;2023-04-23T11:49:40;3.33;;;3.14;;
66669;SDS011;53568;52.164;4.472;2023-04-23T11:52:07;3.11;;;2.89;;
66669;SDS011;53568;52.164;4.472;2023-04-23T11:54:33;3.31;;;3.02;;
66669;SDS011;53568;52.164;4.472;2023-04-23T11:57:00;2.99;;;2.73;;
66669;SDS011;53568;52.164;4.472;2023-04-23T11:59:28;3.14;;;2.88;;
66669;SDS011;53568;52.164;4.472;2023-04-23T12:01:55;3.08;;;2.81;;
66669;SDS011;53568;52.164;4.472;2023-04-23T12:04:23;2.91;;;2.61;;
66669;SDS011;53568;52.164;4.472;2023-04-23T12:06:53;2.88;;;2.55;;
66669;SDS011;53568;52.164;4.472;2023-04-23T12:09:21;2.85;;;2.51;;
66669;SDS011;53568;52.164;4.472;2023-04-23T12:11:48;2.73;;;2.40;;
66669;SDS011;53568;52.164;4.472;2023-04-23T12:14:15;3.04;;;2.76;;
66669;SDS011;53568;52.164;4.472;2023-04-23T12:16:46;2.84;;;2.60;;
66669;SDS011;53568;52.164;4.472;2023-04-23T12:19:26;3.14;;;2.88;;
66669;SDS011;53568;52.164;4.472;2023-04-23T12:21:57;3.03;;;2.79;;
66669;SDS011;53568;52.164;4.472;2023-04-23T12:24:25;2.97;;;2.78;;
66669;SDS011;53568;52.164;4.472;2023-04-23T12:27:12;2.84;;;2.73;;
66669;SDS011;53568;52.164;4.472;2023-04-23T12:29:39;2.79;;;2.59;;
66669;SDS011;53568;52.164;4.472;2023-04-23T12:32:08;2.91;;;2.67;;
66669;SDS011;53568;52.164;4.472;2023-04-23T12:34:35;3.07;;;2.80;;
66669;SDS011;53568;52.164;4.472;2023-04-23T12:37:04;2.90;;;2.63;;
66669;SDS011;53568;52.164;4.472;2023-04-23T12:39:31;2.91;;;2.65;;
66669;SDS011;53568;52.164;4.472;2023-04-23T12:42:02;2.90;;;2.66;;
66669;SDS011;53568;52.164;4.472;2023-04-23T12:44:30;3.06;;;2.74;;
66669;SDS011;53568;52.164;4.472;2023-04-23T12:46:59;3.13;;;2.78;;
66669;SDS011;53568;52.164;4.472;2023-04-23T12:49:30;3.30;;;2.97;;
66669;SDS011;53568;52.164;4.472;2023-04-23T12:51:57;3.44;;;3.10;;
66669;SDS011;53568;52.164;4.472;2023-04-23T12:54:27;3.18;;;2.90;;
66669;SDS011;53568;52.164;4.472;2023-04-23T12:57:03;3.13;;;2.80;;
66669;SDS011;53568;52.164;4.472;2023-04-23T12:59:31;2.83;;;2.53;;
66669;SDS011;53568;52.164;4.472;2023-04-23T13:01:57;2.95;;;2.60;;
66669;SDS011;53568;52.164;4.472;2023-04-23T13:04:27;2.96;;;2.59;;
66669;SDS011;53568;52.164;4.472;2023-04-23T13:06:57;2.96;;;2.60;;
66669;SDS011;53568;52.164;4.472;2023-04-23T13:09:22;2.98;;;2.59;;
66669;SDS011;53568;52.164;4.472;2023-04-23T13:11:49;2.66;;;2.27;;
66669;SDS011;53568;52.164;4.472;2023-04-23T13:14:15;2.44;;;2.06;;
66669;SDS011;53568;52.164;4.472;2023-04-23T13:16:41;2.06;;;1.76;;
66669;SDS011;53568;52.164;4.472;2023-04-23T13:19:07;2.29;;;1.97;;
66669;SDS011;53568;52.164;4.472;2023-04-23T13:21:33;2.38;;;2.11;;
66669;SDS011;53568;52.164;4.472;2023-04-23T13:23:59;2.62;;;2.36;;
66669;SDS011;53568;52.164;4.472;2023-04-23T13:26:25;2.20;;;2.04;;
66669;SDS011;53568;52.164;4.472;2023-04-23T13:28:56;2.31;;;2.17;;
66669;SDS011;53568;52.164;4.472;2023-04-23T13:31:22;2.26;;;2.13;;
66669;SDS011;53568;52.164;4.472;2023-04-23T13:33:47;1.97;;;1.86;;
66669;SDS011;53568;52.164;4.472;2023-04-23T13:36:13;1.78;;;1.70;;
66669;SDS011;53568;52.164;4.472;2023-04-23T13:38:38;1.81;;;1.73;;
66669;SDS011;53568;52.164;4.472;2023-04-23T13:41:04;1.86;;;1.77;;
66669;SDS011;53568;52.164;4.472;2023-04-23T13:43:29;1.80;;;1.74;;
66669;SDS011;53568;52.164;4.472;2023-04-23T13:45:55;1.78;;;1.75;;
66669;SDS011;53568;52.164;4.472;2023-04-23T13:48:21;1.67;;;1.67;;
66669;SDS011;53568;52.164;4.472;2023-04-23T13:50:47;2.07;;;2.07;;
66669;SDS011;53568;52.164;4.472;2023-04-23T13:53:12;2.08;;;2.07;;
66669;SDS011;53568;52.164;4.472;2023-04-23T13:55:38;2.26;;;2.25;;
66669;SDS011;53568;52.164;4.472;2023-04-23T13:58:04;2.65;;;2.58;;
66669;SDS011;53568;52.164;4.472;2023-04-23T14:00:31;2.70;;;2.68;;
66669;SDS011;53568;52.164;4.472;2023-04-23T14:02:57;3.14;;;3.14;;
66669;SDS011;53568;52.164;4.472;2023-04-23T14:05:22;3.39;;;3.39;;
66669;SDS011;53568;52.164;4.472;2023-04-23T14:07:48;3.46;;;3.46;;
66669;SDS011;53568;52.164;4.472;2023-04-23T14:10:14;3.99;;;3.98;;
66669;SDS011;53568;52.164;4.472;2023-04-23T14:12:39;4.03;;;4.03;;
66669;SDS011;53568;52.164;4.472;2023-04-23T14:15:13;4.83;;;4.83;;
66669;SDS011;53568;52.164;4.472;2023-04-23T14:17:38;4.90;;;4.90;;
66669;SDS011;53568;52.164;4.472;2023-04-23T14:20:07;4.94;;;4.92;;
66669;SDS011;53568;52.164;4.472;2023-04-23T14:22:33;4.85;;;4.85;;
66669;SDS011;53568;52.164;4.472;2023-04-23T14:25:03;4.90;;;4.90;;
66669;SDS011;53568;52.164;4.472;2023-04-23T14:27:38;4.68;;;4.68;;
66669;SDS011;53568;52.164;4.472;2023-04-23T14:30:15;4.83;;;4.83;;
66669;SDS011;53568;52.164;4.472;2023-04-23T14:32:43;4.88;;;4.88;;
66669;SDS011;53568;52.164;4.472;2023-04-23T14:35:11;4.58;;;4.58;;
66669;SDS011;53568;52.164;4.472;2023-04-23T14:37:37;4.54;;;4.54;;
66669;SDS011;53568;52.164;4.472;2023-04-23T14:40:07;4.58;;;4.57;;
66669;SDS011;53568;52.164;4.472;2023-04-23T14:42:33;4.68;;;4.65;;